sensor_id;sensor_type;location;lat;lon;timestamp;P1;durP1;ratioP1;P2;durP2;ratioP2
59416;SDS011;45222;52.458;20.914;2022-09-28T00:01:44;18.80;;;16.50;;
59416;SDS011;45222;52.458;20.914;2022-09-28T00:04:50;18.70;;;16.00;;
59416;SDS011;45222;52.458;20.914;2022-09-28T00:07:55;18.70;;;15.30;;
59416;SDS011;45222;52.458;20.914;2022-09-28T00:11:01;18.40;;;15.90;;
59416;SDS011;45222;52.458;20.914;2022-09-28T00:14:08;19.00;;;17.10;;
59416;SDS011;45222;52.458;20.914;2022-09-28T00:17:13;18.90;;;16.60;;
59416;SDS011;45222;52.458;20.914;2022-09-28T00:20:23;19.80;;;17.70;;
59416;SDS011;45222;52.458;20.914;2022-09-28T00:23:29;18.60;;;16.60;;
59416;SDS011;45222;52.458;20.914;2022-09-28T00:26:35;19.70;;;17.20;;
59416;SDS011;45222;52.458;20.914;2022-09-28T00:29:42;17.60;;;15.70;;
59416;SDS011;45222;52.458;20.914;2022-09-28T00:32:48;17.60;;;15.70;;
59416;SDS011;45222;52.458;20.914;2022-09-28T00:36:01;17.80;;;15.90;;
59416;SDS011;45222;52.458;20.914;2022-09-28T00:39:14;15.90;;;14.20;;
59416;SDS011;45222;52.458;20.914;2022-09-28T00:42:25;15.70;;;13.00;;
59416;SDS011;45222;52.458;20.914;2022-09-28T00:45:32;14.50;;;12.70;;
59416;SDS011;45222;52.458;20.914;2022-09-28T00:48:42;12.40;;;11.00;;
59416;SDS011;45222;52.458;20.914;2022-09-28T00:51:55;11.30;;;7.90;;
59416;SDS011;45222;52.458;20.914;2022-09-28T00:55:04;9.20;;;7.30;;
59416;SDS011;45222;52.458;20.914;2022-09-28T01:01:24;8.20;;;6.10;;
59416;SDS011;45222;52.458;20.914;2022-09-28T01:04:36;7.50;;;5.40;;
59416;SDS011;45222;52.458;20.914;2022-09-28T01:07:43;7.10;;;5.10;;
59416;SDS011;45222;52.458;20.914;2022-09-28T01:10:49;8.00;;;5.10;;
59416;SDS011;45222;52.458;20.914;2022-09-28T01:13:55;7.30;;;4.10;;
59416;SDS011;45222;52.458;20.914;2022-09-28T01:17:05;6.40;;;4.40;;
59416;SDS011;45222;52.458;20.914;2022-09-28T01:23:55;6.00;;;3.60;;
59416;SDS011;45222;52.458;20.914;2022-09-28T01:27:13;7.00;;;4.00;;
59416;SDS011;45222;52.458;20.914;2022-09-28T01:30:23;5.40;;;2.80;;
59416;SDS011;45222;52.458;20.914;2022-09-28T01:36:42;3.90;;;2.30;;
59416;SDS011;45222;52.458;20.914;2022-09-28T01:39:52;4.60;;;2.20;;
59416;SDS011;45222;52.458;20.914;2022-09-28T01:43:00;4.50;;;2.30;;
59416;SDS011;45222;52.458;20.914;2022-09-28T01:46:10;4.70;;;2.50;;
59416;SDS011;45222;52.458;20.914;2022-09-28T01:49:17;4.20;;;2.20;;
59416;SDS011;45222;52.458;20.914;2022-09-28T01:52:27;4.10;;;2.00;;
59416;SDS011;45222;52.458;20.914;2022-09-28T01:55:40;4.60;;;2.30;;
59416;SDS011;45222;52.458;20.914;2022-09-28T01:58:49;4.00;;;2.10;;
59416;SDS011;45222;52.458;20.914;2022-09-28T02:01:58;4.30;;;2.10;;
59416;SDS011;45222;52.458;20.914;2022-09-28T02:05:09;3.80;;;2.10;;
59416;SDS011;45222;52.458;20.914;2022-09-28T02:08:19;4.60;;;2.40;;
59416;SDS011;45222;52.458;20.914;2022-09-28T02:11:29;3.60;;;2.20;;
59416;SDS011;45222;52.458;20.914;2022-09-28T02:14:39;5.00;;;2.30;;
59416;SDS011;45222;52.458;20.914;2022-09-28T02:17:46;3.70;;;2.00;;
59416;SDS011;45222;52.458;20.914;2022-09-28T02:20:55;3.90;;;2.10;;
59416;SDS011;45222;52.458;20.914;2022-09-28T02:24:16;3.90;;;2.20;;
59416;SDS011;45222;52.458;20.914;2022-09-28T02:27:28;4.60;;;2.20;;
59416;SDS011;45222;52.458;20.914;2022-09-28T02:30:38;4.90;;;2.20;;
59416;SDS011;45222;52.458;20.914;2022-09-28T02:33:44;6.70;;;2.30;;
59416;SDS011;45222;52.458;20.914;2022-09-28T02:36:52;6.30;;;3.00;;
59416;SDS011;45222;52.458;20.914;2022-09-28T02:39:57;6.80;;;4.00;;
59416;SDS011;45222;52.458;20.914;2022-09-28T02:43:07;4.50;;;2.10;;
59416;SDS011;45222;52.458;20.914;2022-09-28T02:46:19;5.30;;;2.40;;
59416;SDS011;45222;52.458;20.914;2022-09-28T02:52:50;4.00;;;2.10;;
59416;SDS011;45222;52.458;20.914;2022-09-28T02:56:14;5.20;;;1.90;;
59416;SDS011;45222;52.458;20.914;2022-09-28T02:59:36;3.90;;;2.30;;
59416;SDS011;45222;52.458;20.914;2022-09-28T03:02:50;4.10;;;2.10;;
59416;SDS011;45222;52.458;20.914;2022-09-28T03:06:08;4.90;;;2.00;;
59416;SDS011;45222;52.458;20.914;2022-09-28T03:09:18;4.40;;;1.90;;
59416;SDS011;45222;52.458;20.914;2022-09-28T03:12:28;2.90;;;1.80;;
59416;SDS011;45222;52.458;20.914;2022-09-28T03:15:34;3.40;;;1.90;;
59416;SDS011;45222;52.458;20.914;2022-09-28T03:18:40;3.30;;;1.80;;
59416;SDS011;45222;52.458;20.914;2022-09-28T03:21:46;3.00;;;1.70;;
59416;SDS011;45222;52.458;20.914;2022-09-28T03:24:51;3.30;;;1.80;;
59416;SDS011;45222;52.458;20.914;2022-09-28T03:27:57;3.40;;;1.90;;
59416;SDS011;45222;52.458;20.914;2022-09-28T03:31:02;3.40;;;1.80;;
59416;SDS011;45222;52.458;20.914;2022-09-28T03:34:08;3.30;;;1.80;;
59416;SDS011;45222;52.458;20.914;2022-09-28T03:37:14;4.70;;;2.20;;
59416;SDS011;45222;52.458;20.914;2022-09-28T03:40:19;4.60;;;2.00;;
59416;SDS011;45222;52.458;20.914;2022-09-28T03:43:24;4.80;;;2.20;;
59416;SDS011;45222;52.458;20.914;2022-09-28T03:46:32;4.10;;;2.10;;
59416;SDS011;45222;52.458;20.914;2022-09-28T03:49:37;4.90;;;2.50;;
59416;SDS011;45222;52.458;20.914;2022-09-28T03:52:42;4.70;;;2.20;;
59416;SDS011;45222;52.458;20.914;2022-09-28T03:55:48;5.60;;;2.70;;
59416;SDS011;45222;52.458;20.914;2022-09-28T03:58:54;6.20;;;2.60;;
59416;SDS011;45222;52.458;20.914;2022-09-28T04:01:59;6.00;;;2.70;;
59416;SDS011;45222;52.458;20.914;2022-09-28T04:05:06;6.00;;;3.00;;
59416;SDS011;45222;52.458;20.914;2022-09-28T04:08:11;5.80;;;3.30;;
59416;SDS011;45222;52.458;20.914;2022-09-28T04:11:17;5.90;;;3.60;;
59416;SDS011;45222;52.458;20.914;2022-09-28T04:14:22;6.40;;;4.00;;
59416;SDS011;45222;52.458;20.914;2022-09-28T04:17:28;6.30;;;3.80;;
59416;SDS011;45222;52.458;20.914;2022-09-28T04:20:33;5.90;;;3.80;;
59416;SDS011;45222;52.458;20.914;2022-09-28T04:23:38;6.60;;;4.00;;
59416;SDS011;45222;52.458;20.914;2022-09-28T04:26:44;7.10;;;5.20;;
59416;SDS011;45222;52.458;20.914;2022-09-28T04:29:50;7.20;;;5.00;;
59416;SDS011;45222;52.458;20.914;2022-09-28T04:34:00;7.60;;;5.80;;
59416;SDS011;45222;52.458;20.914;2022-09-28T04:37:06;10.00;;;7.00;;
59416;SDS011;45222;52.458;20.914;2022-09-28T04:40:11;11.00;;;7.60;;
59416;SDS011;45222;52.458;20.914;2022-09-28T04:43:17;10.50;;;7.80;;
59416;SDS011;45222;52.458;20.914;2022-09-28T04:46:23;10.10;;;7.80;;
59416;SDS011;45222;52.458;20.914;2022-09-28T04:49:28;10.30;;;8.20;;
59416;SDS011;45222;52.458;20.914;2022-09-28T04:52:36;13.00;;;9.20;;
59416;SDS011;45222;52.458;20.914;2022-09-28T04:55:42;11.40;;;9.20;;
59416;SDS011;45222;52.458;20.914;2022-09-28T04:58:48;10.30;;;8.80;;
59416;SDS011;45222;52.458;20.914;2022-09-28T05:01:53;10.80;;;8.80;;
59416;SDS011;45222;52.458;20.914;2022-09-28T05:04:58;10.40;;;8.40;;
59416;SDS011;45222;52.458;20.914;2022-09-28T05:08:04;11.50;;;9.10;;
59416;SDS011;45222;52.458;20.914;2022-09-28T05:11:10;11.70;;;9.50;;
59416;SDS011;45222;52.458;20.914;2022-09-28T05:14:17;12.40;;;9.40;;
59416;SDS011;45222;52.458;20.914;2022-09-28T05:17:23;13.30;;;9.20;;
59416;SDS011;45222;52.458;20.914;2022-09-28T05:20:28;11.10;;;9.40;;
59416;SDS011;45222;52.458;20.914;2022-09-28T05:23:34;11.10;;;9.00;;
59416;SDS011;45222;52.458;20.914;2022-09-28T05:26:39;11.10;;;9.10;;
59416;SDS011;45222;52.458;20.914;2022-09-28T05:29:45;13.60;;;10.60;;
59416;SDS011;45222;52.458;20.914;2022-09-28T05:32:50;11.80;;;10.30;;
59416;SDS011;45222;52.458;20.914;2022-09-28T05:35:55;12.70;;;11.20;;
59416;SDS011;45222;52.458;20.914;2022-09-28T05:39:01;12.10;;;10.70;;
59416;SDS011;45222;52.458;20.914;2022-09-28T05:42:07;13.20;;;10.80;;
59416;SDS011;45222;52.458;20.914;2022-09-28T05:45:12;14.20;;;12.00;;
59416;SDS011;45222;52.458;20.914;2022-09-28T05:48:18;13.50;;;12.00;;
59416;SDS011;45222;52.458;20.914;2022-09-28T05:51:23;16.20;;;13.30;;
59416;SDS011;45222;52.458;20.914;2022-09-28T05:54:28;14.10;;;12.70;;
59416;SDS011;45222;52.458;20.914;2022-09-28T05:57:34;15.00;;;13.00;;
59416;SDS011;45222;52.458;20.914;2022-09-28T06:00:39;12.80;;;11.40;;
59416;SDS011;45222;52.458;20.914;2022-09-28T06:03:45;12.60;;;11.30;;
59416;SDS011;45222;52.458;20.914;2022-09-28T06:06:50;13.50;;;11.10;;
59416;SDS011;45222;52.458;20.914;2022-09-28T06:09:55;12.40;;;11.10;;
59416;SDS011;45222;52.458;20.914;2022-09-28T06:13:01;12.60;;;11.20;;
59416;SDS011;45222;52.458;20.914;2022-09-28T06:16:12;12.70;;;11.30;;
59416;SDS011;45222;52.458;20.914;2022-09-28T06:19:24;13.70;;;11.90;;
59416;SDS011;45222;52.458;20.914;2022-09-28T06:22:37;13.80;;;12.40;;
59416;SDS011;45222;52.458;20.914;2022-09-28T06:25:42;13.50;;;11.80;;
59416;SDS011;45222;52.458;20.914;2022-09-28T06:28:47;13.40;;;11.80;;
59416;SDS011;45222;52.458;20.914;2022-09-28T06:31:52;12.70;;;11.30;;
59416;SDS011;45222;52.458;20.914;2022-09-28T06:34:58;13.20;;;11.40;;
59416;SDS011;45222;52.458;20.914;2022-09-28T06:38:04;12.50;;;10.60;;
59416;SDS011;45222;52.458;20.914;2022-09-28T06:41:09;13.60;;;10.80;;
59416;SDS011;45222;52.458;20.914;2022-09-28T06:44:15;13.40;;;11.00;;
59416;SDS011;45222;52.458;20.914;2022-09-28T06:47:20;14.60;;;12.10;;
59416;SDS011;45222;52.458;20.914;2022-09-28T06:50:26;12.10;;;10.80;;
59416;SDS011;45222;52.458;20.914;2022-09-28T06:53:33;12.00;;;10.60;;
59416;SDS011;45222;52.458;20.914;2022-09-28T06:56:39;12.10;;;10.10;;
59416;SDS011;45222;52.458;20.914;2022-09-28T06:59:44;11.40;;;9.80;;
59416;SDS011;45222;52.458;20.914;2022-09-28T07:02:51;11.40;;;9.10;;
59416;SDS011;45222;52.458;20.914;2022-09-28T07:06:08;11.10;;;9.10;;
59416;SDS011;45222;52.458;20.914;2022-09-28T07:12:24;12.20;;;10.50;;
59416;SDS011;45222;52.458;20.914;2022-09-28T07:15:32;10.50;;;9.40;;
59416;SDS011;45222;52.458;20.914;2022-09-28T07:18:38;11.80;;;9.50;;
59416;SDS011;45222;52.458;20.914;2022-09-28T07:21:44;12.30;;;9.40;;
59416;SDS011;45222;52.458;20.914;2022-09-28T07:24:49;10.10;;;9.00;;
59416;SDS011;45222;52.458;20.914;2022-09-28T07:27:55;10.30;;;8.60;;
59416;SDS011;45222;52.458;20.914;2022-09-28T07:31:02;10.80;;;9.10;;
59416;SDS011;45222;52.458;20.914;2022-09-28T07:34:08;12.50;;;9.80;;
59416;SDS011;45222;52.458;20.914;2022-09-28T07:37:13;12.00;;;10.00;;
59416;SDS011;45222;52.458;20.914;2022-09-28T07:40:20;10.20;;;8.80;;
59416;SDS011;45222;52.458;20.914;2022-09-28T07:43:43;9.00;;;8.00;;
59416;SDS011;45222;52.458;20.914;2022-09-28T07:46:48;10.20;;;8.00;;
59416;SDS011;45222;52.458;20.914;2022-09-28T07:49:54;10.20;;;8.00;;
59416;SDS011;45222;52.458;20.914;2022-09-28T07:52:59;10.90;;;9.20;;
59416;SDS011;45222;52.458;20.914;2022-09-28T07:56:05;10.70;;;8.60;;
59416;SDS011;45222;52.458;20.914;2022-09-28T07:59:11;11.40;;;8.90;;
59416;SDS011;45222;52.458;20.914;2022-09-28T08:02:20;10.30;;;8.90;;
59416;SDS011;45222;52.458;20.914;2022-09-28T08:05:26;11.20;;;8.70;;
59416;SDS011;45222;52.458;20.914;2022-09-28T08:08:33;12.00;;;9.40;;
59416;SDS011;45222;52.458;20.914;2022-09-28T08:11:39;12.30;;;10.20;;
59416;SDS011;45222;52.458;20.914;2022-09-28T08:14:45;11.60;;;9.90;;
59416;SDS011;45222;52.458;20.914;2022-09-28T08:17:52;11.70;;;9.10;;
59416;SDS011;45222;52.458;20.914;2022-09-28T08:20:59;11.90;;;9.10;;
59416;SDS011;45222;52.458;20.914;2022-09-28T08:24:24;11.10;;;9.20;;
59416;SDS011;45222;52.458;20.914;2022-09-28T08:27:32;11.40;;;9.40;;
59416;SDS011;45222;52.458;20.914;2022-09-28T08:30:37;11.00;;;9.90;;
59416;SDS011;45222;52.458;20.914;2022-09-28T08:33:43;11.60;;;9.30;;
59416;SDS011;45222;52.458;20.914;2022-09-28T08:36:49;10.60;;;8.70;;
59416;SDS011;45222;52.458;20.914;2022-09-28T08:39:54;10.50;;;9.40;;
59416;SDS011;45222;52.458;20.914;2022-09-28T08:43:00;11.60;;;10.00;;
59416;SDS011;45222;52.458;20.914;2022-09-28T08:46:12;10.10;;;9.00;;
59416;SDS011;45222;52.458;20.914;2022-09-28T08:49:22;10.90;;;9.00;;
59416;SDS011;45222;52.458;20.914;2022-09-28T08:52:32;10.40;;;9.10;;
59416;SDS011;45222;52.458;20.914;2022-09-28T08:58:46;10.90;;;9.50;;
59416;SDS011;45222;52.458;20.914;2022-09-28T09:01:59;13.20;;;9.20;;
59416;SDS011;45222;52.458;20.914;2022-09-28T09:05:08;11.80;;;7.40;;
59416;SDS011;45222;52.458;20.914;2022-09-28T09:08:22;32.70;;;12.50;;
59416;SDS011;45222;52.458;20.914;2022-09-28T09:11:42;48.80;;;16.10;;
59416;SDS011;45222;52.458;20.914;2022-09-28T09:15:02;11.70;;;7.90;;
59416;SDS011;45222;52.458;20.914;2022-09-28T09:18:23;9.90;;;6.90;;
59416;SDS011;45222;52.458;20.914;2022-09-28T09:21:39;9.10;;;7.10;;
59416;SDS011;45222;52.458;20.914;2022-09-28T09:24:51;8.80;;;7.90;;
59416;SDS011;45222;52.458;20.914;2022-09-28T09:28:10;7.80;;;7.00;;
59416;SDS011;45222;52.458;20.914;2022-09-28T09:31:41;8.50;;;5.90;;
59416;SDS011;45222;52.458;20.914;2022-09-28T09:38:40;8.00;;;6.10;;
59416;SDS011;45222;52.458;20.914;2022-09-28T09:42:05;11.20;;;7.10;;
59416;SDS011;45222;52.458;20.914;2022-09-28T09:45:26;8.20;;;6.00;;
59416;SDS011;45222;52.458;20.914;2022-09-28T09:48:42;9.20;;;6.40;;
59416;SDS011;45222;52.458;20.914;2022-09-28T09:51:54;7.30;;;5.80;;
59416;SDS011;45222;52.458;20.914;2022-09-28T09:55:12;7.90;;;5.10;;
59416;SDS011;45222;52.458;20.914;2022-09-28T09:58:21;7.10;;;5.20;;
59416;SDS011;45222;52.458;20.914;2022-09-28T10:01:33;9.30;;;5.40;;
59416;SDS011;45222;52.458;20.914;2022-09-28T10:04:41;8.00;;;5.30;;
59416;SDS011;45222;52.458;20.914;2022-09-28T10:07:50;8.20;;;5.60;;
59416;SDS011;45222;52.458;20.914;2022-09-28T10:11:03;7.00;;;5.30;;
59416;SDS011;45222;52.458;20.914;2022-09-28T10:14:11;8.30;;;4.90;;
59416;SDS011;45222;52.458;20.914;2022-09-28T10:17:19;7.40;;;4.10;;
59416;SDS011;45222;52.458;20.914;2022-09-28T10:20:30;7.10;;;4.40;;
59416;SDS011;45222;52.458;20.914;2022-09-28T10:23:39;7.40;;;4.60;;
59416;SDS011;45222;52.458;20.914;2022-09-28T10:26:47;7.90;;;4.30;;
59416;SDS011;45222;52.458;20.914;2022-09-28T10:29:58;8.40;;;4.80;;
59416;SDS011;45222;52.458;20.914;2022-09-28T10:33:06;6.90;;;4.60;;
59416;SDS011;45222;52.458;20.914;2022-09-28T10:36:33;5.70;;;4.00;;
59416;SDS011;45222;52.458;20.914;2022-09-28T10:39:51;8.90;;;4.60;;
59416;SDS011;45222;52.458;20.914;2022-09-28T10:43:01;7.00;;;3.90;;
59416;SDS011;45222;52.458;20.914;2022-09-28T10:46:10;7.90;;;4.20;;
59416;SDS011;45222;52.458;20.914;2022-09-28T10:49:17;5.70;;;3.40;;
59416;SDS011;45222;52.458;20.914;2022-09-28T10:52:32;5.60;;;3.20;;
59416;SDS011;45222;52.458;20.914;2022-09-28T10:55:39;5.70;;;3.20;;
59416;SDS011;45222;52.458;20.914;2022-09-28T10:58:57;5.80;;;3.20;;
59416;SDS011;45222;52.458;20.914;2022-09-28T11:02:07;5.20;;;3.00;;
59416;SDS011;45222;52.458;20.914;2022-09-28T11:05:23;4.60;;;3.00;;
59416;SDS011;45222;52.458;20.914;2022-09-28T11:08:31;5.20;;;2.60;;
59416;SDS011;45222;52.458;20.914;2022-09-28T11:11:39;4.40;;;2.80;;
59416;SDS011;45222;52.458;20.914;2022-09-28T11:14:46;4.90;;;2.90;;
59416;SDS011;45222;52.458;20.914;2022-09-28T11:17:57;4.60;;;2.90;;
59416;SDS011;45222;52.458;20.914;2022-09-28T11:21:25;5.00;;;2.80;;
59416;SDS011;45222;52.458;20.914;2022-09-28T11:24:33;5.00;;;2.50;;
59416;SDS011;45222;52.458;20.914;2022-09-28T11:27:38;3.90;;;2.20;;
59416;SDS011;45222;52.458;20.914;2022-09-28T11:30:44;5.20;;;2.50;;
59416;SDS011;45222;52.458;20.914;2022-09-28T11:33:59;4.70;;;2.40;;
59416;SDS011;45222;52.458;20.914;2022-09-28T11:37:15;5.90;;;2.60;;
59416;SDS011;45222;52.458;20.914;2022-09-28T11:40:38;5.00;;;2.70;;
59416;SDS011;45222;52.458;20.914;2022-09-28T11:43:57;4.90;;;2.50;;
59416;SDS011;45222;52.458;20.914;2022-09-28T11:47:27;6.30;;;2.70;;
59416;SDS011;45222;52.458;20.914;2022-09-28T11:50:46;5.00;;;2.60;;
59416;SDS011;45222;52.458;20.914;2022-09-28T11:53:55;5.40;;;2.80;;
59416;SDS011;45222;52.458;20.914;2022-09-28T11:57:10;6.30;;;2.70;;
59416;SDS011;45222;52.458;20.914;2022-09-28T12:00:18;4.50;;;2.50;;
59416;SDS011;45222;52.458;20.914;2022-09-28T12:03:28;6.30;;;2.60;;
59416;SDS011;45222;52.458;20.914;2022-09-28T12:06:39;4.70;;;2.30;;
59416;SDS011;45222;52.458;20.914;2022-09-28T12:09:49;4.60;;;2.30;;
59416;SDS011;45222;52.458;20.914;2022-09-28T12:12:58;5.40;;;2.70;;
59416;SDS011;45222;52.458;20.914;2022-09-28T12:16:06;5.30;;;2.20;;
59416;SDS011;45222;52.458;20.914;2022-09-28T12:19:17;5.40;;;2.30;;
59416;SDS011;45222;52.458;20.914;2022-09-28T12:22:27;5.50;;;2.00;;
59416;SDS011;45222;52.458;20.914;2022-09-28T12:25:38;4.70;;;2.10;;
59416;SDS011;45222;52.458;20.914;2022-09-28T12:28:47;3.50;;;2.00;;
59416;SDS011;45222;52.458;20.914;2022-09-28T12:31:59;3.50;;;2.10;;
59416;SDS011;45222;52.458;20.914;2022-09-28T12:35:13;6.10;;;2.60;;
59416;SDS011;45222;52.458;20.914;2022-09-28T12:38:30;4.70;;;2.40;;
59416;SDS011;45222;52.458;20.914;2022-09-28T12:41:47;4.70;;;2.20;;
59416;SDS011;45222;52.458;20.914;2022-09-28T12:45:15;4.80;;;2.30;;
59416;SDS011;45222;52.458;20.914;2022-09-28T12:52:06;4.50;;;2.10;;
59416;SDS011;45222;52.458;20.914;2022-09-28T12:55:39;6.40;;;2.90;;
59416;SDS011;45222;52.458;20.914;2022-09-28T12:58:55;4.30;;;2.20;;
59416;SDS011;45222;52.458;20.914;2022-09-28T13:02:23;3.20;;;1.80;;
59416;SDS011;45222;52.458;20.914;2022-09-28T13:05:57;3.50;;;1.90;;
59416;SDS011;45222;52.458;20.914;2022-09-28T13:09:15;2.90;;;2.00;;
59416;SDS011;45222;52.458;20.914;2022-09-28T13:15:35;3.40;;;1.60;;
59416;SDS011;45222;52.458;20.914;2022-09-28T13:18:47;5.10;;;1.70;;
59416;SDS011;45222;52.458;20.914;2022-09-28T13:21:59;3.40;;;1.70;;
59416;SDS011;45222;52.458;20.914;2022-09-28T13:25:19;4.70;;;2.00;;
59416;SDS011;45222;52.458;20.914;2022-09-28T13:28:28;3.70;;;1.80;;
59416;SDS011;45222;52.458;20.914;2022-09-28T13:31:38;4.20;;;2.00;;
59416;SDS011;45222;52.458;20.914;2022-09-28T13:34:50;3.50;;;1.80;;
59416;SDS011;45222;52.458;20.914;2022-09-28T13:41:50;4.80;;;2.40;;
59416;SDS011;45222;52.458;20.914;2022-09-28T13:45:08;4.10;;;1.90;;
59416;SDS011;45222;52.458;20.914;2022-09-28T13:48:31;4.10;;;2.10;;
59416;SDS011;45222;52.458;20.914;2022-09-28T13:51:51;4.20;;;1.70;;
59416;SDS011;45222;52.458;20.914;2022-09-28T13:55:16;4.30;;;2.00;;
59416;SDS011;45222;52.458;20.914;2022-09-28T13:58:28;4.50;;;2.00;;
59416;SDS011;45222;52.458;20.914;2022-09-28T14:01:38;4.10;;;1.90;;
59416;SDS011;45222;52.458;20.914;2022-09-28T14:04:53;3.10;;;1.80;;
59416;SDS011;45222;52.458;20.914;2022-09-28T14:11:52;6.90;;;2.50;;
59416;SDS011;45222;52.458;20.914;2022-09-28T14:15:05;4.60;;;2.10;;
59416;SDS011;45222;52.458;20.914;2022-09-28T14:18:45;3.80;;;1.90;;
59416;SDS011;45222;52.458;20.914;2022-09-28T14:22:08;5.70;;;2.20;;
59416;SDS011;45222;52.458;20.914;2022-09-28T14:25:24;4.90;;;2.20;;
59416;SDS011;45222;52.458;20.914;2022-09-28T14:31:50;5.60;;;2.20;;
59416;SDS011;45222;52.458;20.914;2022-09-28T14:34:56;4.00;;;2.30;;
59416;SDS011;45222;52.458;20.914;2022-09-28T14:38:10;3.60;;;2.10;;
59416;SDS011;45222;52.458;20.914;2022-09-28T14:41:37;5.10;;;2.40;;
59416;SDS011;45222;52.458;20.914;2022-09-28T14:48:22;4.00;;;2.60;;
59416;SDS011;45222;52.458;20.914;2022-09-28T14:55:14;5.70;;;2.70;;
59416;SDS011;45222;52.458;20.914;2022-09-28T14:58:21;6.40;;;2.80;;
59416;SDS011;45222;52.458;20.914;2022-09-28T15:01:30;6.60;;;3.20;;
59416;SDS011;45222;52.458;20.914;2022-09-28T15:04:47;5.20;;;2.80;;
59416;SDS011;45222;52.458;20.914;2022-09-28T15:07:57;4.40;;;2.60;;
59416;SDS011;45222;52.458;20.914;2022-09-28T15:11:03;5.20;;;2.60;;
59416;SDS011;45222;52.458;20.914;2022-09-28T15:14:12;5.00;;;2.40;;
59416;SDS011;45222;52.458;20.914;2022-09-28T15:17:19;9.60;;;3.20;;
59416;SDS011;45222;52.458;20.914;2022-09-28T15:20:26;7.80;;;3.00;;
59416;SDS011;45222;52.458;20.914;2022-09-28T15:23:36;6.40;;;3.30;;
59416;SDS011;45222;52.458;20.914;2022-09-28T15:26:46;7.70;;;3.70;;
59416;SDS011;45222;52.458;20.914;2022-09-28T15:29:56;9.60;;;4.20;;
59416;SDS011;45222;52.458;20.914;2022-09-28T15:33:03;11.00;;;4.60;;
59416;SDS011;45222;52.458;20.914;2022-09-28T15:36:43;9.70;;;4.60;;
59416;SDS011;45222;52.458;20.914;2022-09-28T15:39:49;11.10;;;5.00;;
59416;SDS011;45222;52.458;20.914;2022-09-28T15:42:56;9.80;;;5.10;;
59416;SDS011;45222;52.458;20.914;2022-09-28T15:46:04;9.80;;;5.00;;
59416;SDS011;45222;52.458;20.914;2022-09-28T15:49:21;10.10;;;4.70;;
59416;SDS011;45222;52.458;20.914;2022-09-28T15:52:29;11.60;;;5.90;;
59416;SDS011;45222;52.458;20.914;2022-09-28T15:55:40;11.20;;;6.00;;
59416;SDS011;45222;52.458;20.914;2022-09-28T16:02:11;9.50;;;5.40;;
59416;SDS011;45222;52.458;20.914;2022-09-28T16:05:29;8.60;;;5.10;;
59416;SDS011;45222;52.458;20.914;2022-09-28T16:08:39;9.20;;;4.90;;
59416;SDS011;45222;52.458;20.914;2022-09-28T16:11:45;9.60;;;5.50;;
59416;SDS011;45222;52.458;20.914;2022-09-28T16:14:52;11.30;;;6.20;;
59416;SDS011;45222;52.458;20.914;2022-09-28T16:18:02;9.10;;;5.60;;
59416;SDS011;45222;52.458;20.914;2022-09-28T16:21:23;9.60;;;5.80;;
59416;SDS011;45222;52.458;20.914;2022-09-28T16:24:40;10.20;;;6.50;;
59416;SDS011;45222;52.458;20.914;2022-09-28T16:27:55;10.80;;;6.40;;
59416;SDS011;45222;52.458;20.914;2022-09-28T16:31:10;10.60;;;6.10;;
59416;SDS011;45222;52.458;20.914;2022-09-28T16:34:32;10.20;;;6.40;;
59416;SDS011;45222;52.458;20.914;2022-09-28T16:41:58;10.00;;;5.30;;
59416;SDS011;45222;52.458;20.914;2022-09-28T16:45:09;10.80;;;5.70;;
59416;SDS011;45222;52.458;20.914;2022-09-28T16:48:21;10.40;;;5.70;;
59416;SDS011;45222;52.458;20.914;2022-09-28T16:51:29;10.60;;;6.20;;
59416;SDS011;45222;52.458;20.914;2022-09-28T16:54:35;11.40;;;6.30;;
59416;SDS011;45222;52.458;20.914;2022-09-28T16:58:09;9.70;;;4.90;;
59416;SDS011;45222;52.458;20.914;2022-09-28T17:01:15;9.30;;;4.60;;
59416;SDS011;45222;52.458;20.914;2022-09-28T17:04:20;12.50;;;4.60;;
59416;SDS011;45222;52.458;20.914;2022-09-28T17:07:26;11.90;;;4.60;;
59416;SDS011;45222;52.458;20.914;2022-09-28T17:10:33;8.10;;;5.00;;
59416;SDS011;45222;52.458;20.914;2022-09-28T17:13:40;9.30;;;6.00;;
59416;SDS011;45222;52.458;20.914;2022-09-28T17:16:47;10.40;;;6.50;;
59416;SDS011;45222;52.458;20.914;2022-09-28T17:19:55;9.50;;;6.10;;
59416;SDS011;45222;52.458;20.914;2022-09-28T17:23:01;12.40;;;6.40;;
59416;SDS011;45222;52.458;20.914;2022-09-28T17:26:07;9.50;;;5.40;;
59416;SDS011;45222;52.458;20.914;2022-09-28T17:29:20;10.00;;;6.20;;
59416;SDS011;45222;52.458;20.914;2022-09-28T17:32:25;12.50;;;7.50;;
59416;SDS011;45222;52.458;20.914;2022-09-28T17:35:32;10.00;;;6.50;;
59416;SDS011;45222;52.458;20.914;2022-09-28T17:38:40;12.40;;;9.00;;
59416;SDS011;45222;52.458;20.914;2022-09-28T17:41:45;12.70;;;6.60;;
59416;SDS011;45222;52.458;20.914;2022-09-28T17:44:50;12.90;;;6.00;;
59416;SDS011;45222;52.458;20.914;2022-09-28T17:47:56;11.40;;;5.60;;
59416;SDS011;45222;52.458;20.914;2022-09-28T17:51:02;9.70;;;5.90;;
59416;SDS011;45222;52.458;20.914;2022-09-28T17:54:08;16.00;;;9.80;;
59416;SDS011;45222;52.458;20.914;2022-09-28T17:57:14;15.30;;;10.70;;
59416;SDS011;45222;52.458;20.914;2022-09-28T18:00:20;20.70;;;14.20;;
59416;SDS011;45222;52.458;20.914;2022-09-28T18:03:29;16.30;;;11.20;;
59416;SDS011;45222;52.458;20.914;2022-09-28T18:06:39;16.40;;;11.90;;
59416;SDS011;45222;52.458;20.914;2022-09-28T18:09:45;19.10;;;11.20;;
59416;SDS011;45222;52.458;20.914;2022-09-28T18:12:58;44.30;;;35.00;;
59416;SDS011;45222;52.458;20.914;2022-09-28T18:16:03;36.60;;;30.90;;
59416;SDS011;45222;52.458;20.914;2022-09-28T18:19:11;23.50;;;17.30;;
59416;SDS011;45222;52.458;20.914;2022-09-28T18:22:16;17.80;;;12.90;;
59416;SDS011;45222;52.458;20.914;2022-09-28T18:25:22;16.50;;;11.70;;
59416;SDS011;45222;52.458;20.914;2022-09-28T18:28:28;19.90;;;12.40;;
59416;SDS011;45222;52.458;20.914;2022-09-28T18:31:34;12.70;;;6.90;;
59416;SDS011;45222;52.458;20.914;2022-09-28T18:34:41;10.60;;;8.00;;
59416;SDS011;45222;52.458;20.914;2022-09-28T18:37:46;11.90;;;9.70;;
59416;SDS011;45222;52.458;20.914;2022-09-28T18:40:52;13.40;;;8.80;;
59416;SDS011;45222;52.458;20.914;2022-09-28T18:43:57;14.10;;;10.80;;
59416;SDS011;45222;52.458;20.914;2022-09-28T18:47:03;12.10;;;8.90;;
59416;SDS011;45222;52.458;20.914;2022-09-28T18:50:09;10.70;;;7.20;;
59416;SDS011;45222;52.458;20.914;2022-09-28T18:53:17;11.40;;;8.50;;
59416;SDS011;45222;52.458;20.914;2022-09-28T18:56:22;15.00;;;12.80;;
59416;SDS011;45222;52.458;20.914;2022-09-28T18:59:28;16.30;;;13.40;;
59416;SDS011;45222;52.458;20.914;2022-09-28T19:02:34;11.80;;;8.20;;
59416;SDS011;45222;52.458;20.914;2022-09-28T19:05:41;14.50;;;7.50;;
59416;SDS011;45222;52.458;20.914;2022-09-28T19:08:49;11.80;;;7.80;;
59416;SDS011;45222;52.458;20.914;2022-09-28T19:11:57;16.60;;;10.30;;
59416;SDS011;45222;52.458;20.914;2022-09-28T19:15:03;14.10;;;9.70;;
59416;SDS011;45222;52.458;20.914;2022-09-28T19:18:09;15.60;;;11.20;;
59416;SDS011;45222;52.458;20.914;2022-09-28T19:21:14;11.80;;;6.30;;
59416;SDS011;45222;52.458;20.914;2022-09-28T19:24:20;9.60;;;5.10;;
59416;SDS011;45222;52.458;20.914;2022-09-28T19:27:25;8.70;;;4.90;;
59416;SDS011;45222;52.458;20.914;2022-09-28T19:30:31;9.70;;;4.90;;
59416;SDS011;45222;52.458;20.914;2022-09-28T19:33:37;9.60;;;4.90;;